Airfield :
LOGIN :

Register | Disclaimer

   EN    FR    IT 

 










Legend :    VFR   Marginal VFR   IFR   Intensive IFR   Very Intensive IFR
Visi :
Ceiling :
>= 8 km
>= 3000ft
5 to 8 km
1000 to 3000 ft
1500m to 5 km
500 to 1000 ft
800 to 1500m
200 to 500 ft
< 800m
< 200 ft
Symbols :   Thunderstorms  Fog  Heavy snow  Heavy precipitations  Wind > 20 kt
SIGMETs :     Misc.  Thunderstorms  Icing  Turbulence  Mountain Waves  Volcanic Ashes






- Airport Elevation : 84 ft


LFBC - Cazaux

CURRENT METAR :
  • 290000Z AUTO 32002KT CAVOK 11/10 Q1020

EXPIRED METARs :
  • 282330Z AUTO 10002KT CAVOK 12/10 Q1020
  • 282300Z AUTO 02002KT CAVOK 13/11 Q1021
  • 282230Z AUTO 34003KT CAVOK 13/11 Q1021
  • 282200Z AUTO 35003KT CAVOK 13/11 Q1021
  • 282130Z AUTO 34003KT CAVOK 14/10 Q1021
  • 282100Z AUTO 34003KT CAVOK 14/11 Q1021
  • 282030Z AUTO 35005KT CAVOK 15/11 Q1021
  • 282000Z AUTO 34005KT CAVOK 15/10 Q1021
  • 281930Z AUTO 34004KT CAVOK 15/10 Q1020

TAF TAF LFBC
Valid from the 28 at 15:00 until the 29 at 15:00 UTC


281400Z 2815/2915 32007KT CAVOK
BECMG 2910/2912 25010KT BKN014 BKN040



MET'MAP, your aeronautical weather chart ! - Copyright ORBIFLY December 2007 - Disclaimer

ORBIFLY MET'MAP TEAM :

Programming & Development : Alexandra Zaïnal
Original concept : Baudouin d'Aumeries
Technical & hardware support : Manuel Goepfert
Assistance : Marc-Olivier Méhu




SOURCES & CREDITS :

   NOAA